createdAt,value
2017-07-11T00:02:11.887Z,92.10
2017-07-11T00:04:40.294Z,87.67
2017-07-11T00:07:09.229Z,70.60
2017-07-11T00:09:38.476Z,83.07
2017-07-11T00:12:07.221Z,61.63
2017-07-11T00:14:36.810Z,86.07
2017-07-11T00:17:05.558Z,90.37
2017-07-11T00:19:34.413Z,87.53
2017-07-11T00:22:03.304Z,80.47
2017-07-11T00:24:32.750Z,110.10
2017-07-11T00:27:01.493Z,100.83
2017-07-11T00:29:31.034Z,93.47
2017-07-11T00:31:59.734Z,87.03
2017-07-11T00:34:28.581Z,118.57
2017-07-11T00:36:57.387Z,88.87
2017-07-11T00:39:26.134Z,117.03
2017-07-11T00:41:55.809Z,116.03
2017-07-11T00:44:24.809Z,93.77
2017-07-11T00:46:53.553Z,113.50
2017-07-11T00:49:22.797Z,115.50
2017-07-11T00:51:51.792Z,98.00
2017-07-11T00:54:20.538Z,101.40
2017-07-11T00:56:49.242Z,103.67
2017-07-11T00:59:17.481Z,102.70
2017-07-11T01:01:46.086Z,97.27
2017-07-11T01:04:15.591Z,86.67
2017-07-11T01:06:44.514Z,90.03
2017-07-11T01:09:13.379Z,93.10
2017-07-11T01:11:42.578Z,81.47
2017-07-11T01:14:11.365Z,89.57
2017-07-11T01:16:40.770Z,95.57
2017-07-11T01:19:10.457Z,98.97
2017-07-11T01:21:39.454Z,75.20
2017-07-11T01:24:08.197Z,88.90
2017-07-11T01:26:36.921Z,110.17
2017-07-11T01:29:05.170Z,100.20
2017-07-11T01:31:34.033Z,85.73
2017-07-11T01:34:02.885Z,84.03
2017-07-11T01:36:36.929Z,88.53
2017-07-11T01:39:05.834Z,81.67
2017-07-11T01:41:34.583Z,99.57
2017-07-11T01:44:03.249Z,93.90
2017-07-11T01:46:31.919Z,97.27
2017-07-11T01:49:00.681Z,99.03
2017-07-11T01:51:29.478Z,95.43
2017-07-11T01:53:58.330Z,92.07
2017-07-11T01:56:27.170Z,92.97
2017-07-11T01:58:56.174Z,84.03
2017-07-11T02:01:26.733Z,78.37
2017-07-11T02:03:57.218Z,99.33
2017-07-11T02:06:27.356Z,80.33
2017-07-11T02:08:56.750Z,103.43
2017-07-11T02:11:26.571Z,113.60
2017-07-11T02:13:55.629Z,85.60
2017-07-11T02:16:25.858Z,84.83
2017-07-11T02:18:55.567Z,87.10
2017-07-11T02:21:24.758Z,94.90
2017-07-11T02:23:54.217Z,99.37
2017-07-11T02:26:23.085Z,87.27
2017-07-11T02:28:53.901Z,104.63
2017-07-11T02:31:22.501Z,90.63
2017-07-11T02:33:52.267Z,82.73
2017-07-11T02:36:20.750Z,81.63
2017-07-11T02:38:50.378Z,85.30
2017-07-11T02:41:21.976Z,87.93
2017-07-11T02:43:52.078Z,79.27
2017-07-11T02:46:20.777Z,86.67
2017-07-11T02:48:50.794Z,82.67
2017-07-11T02:51:19.159Z,102.00
2017-07-11T02:53:49.262Z,97.07
2017-07-11T02:56:18.206Z,86.67
2017-07-11T02:58:47.251Z,105.20
2017-07-11T03:01:16.980Z,97.57
2017-07-11T03:03:46.739Z,83.53
2017-07-11T03:06:16.477Z,90.40
2017-07-11T03:08:45.734Z,80.23
2017-07-11T03:11:14.473Z,98.47
2017-07-11T03:13:43.900Z,104.67
2017-07-11T03:16:12.489Z,101.70
2017-07-11T03:18:42.609Z,94.77
2017-07-11T03:21:11.018Z,95.43
2017-07-11T03:23:41.345Z,105.73
2017-07-11T03:26:10.429Z,94.40
2017-07-11T03:28:40.058Z,86.30
2017-07-11T03:31:10.930Z,92.40
2017-07-11T03:33:40.450Z,88.07
2017-07-11T03:36:10.281Z,109.00
2017-07-11T03:38:40.097Z,75.07
2017-07-11T03:41:09.926Z,77.40
2017-07-11T03:43:40.730Z,90.23
2017-07-11T03:46:10.894Z,81.53
2017-07-11T03:48:40.153Z,88.37
2017-07-11T03:51:10.021Z,92.97
2017-07-11T03:53:39.195Z,121.17
2017-07-11T03:56:08.662Z,135.23
2017-07-11T03:58:39.586Z,129.43
2017-07-11T04:01:09.889Z,135.43
2017-07-11T04:03:39.854Z,148.00
2017-07-11T04:06:10.290Z,158.47
2017-07-11T04:08:40.218Z,194.70
2017-07-11T04:11:10.570Z,195.47
2017-07-11T04:13:42.010Z,208.57
2017-07-11T04:16:13.193Z,199.27
2017-07-11T04:18:43.194Z,202.27
2017-07-11T04:21:14.094Z,230.90
2017-07-11T04:23:43.181Z,238.63
2017-07-11T04:26:14.721Z,220.10
2017-07-11T04:28:45.194Z,238.03
2017-07-11T04:31:16.050Z,285.90
2017-07-11T04:33:45.270Z,330.37
2017-07-11T04:36:15.566Z,325.63
2017-07-11T04:38:46.358Z,366.33
2017-07-11T04:41:16.047Z,387.33
2017-07-11T04:43:46.833Z,433.57
2017-07-11T04:46:17.821Z,487.80
2017-07-11T04:48:47.053Z,522.80
2017-07-11T04:51:15.842Z,518.13
2017-07-11T04:53:45.806Z,583.43
2017-07-11T05:09:16.114Z,442.10
2017-07-11T05:11:44.860Z,429.30
2017-07-11T05:14:13.973Z,384.73
2017-07-11T05:16:42.973Z,381.87
2017-07-11T05:19:11.766Z,373.10
2017-07-11T05:21:40.725Z,376.23
2017-07-11T05:24:10.046Z,347.93
2017-07-11T05:26:38.949Z,351.10
2017-07-11T05:29:07.697Z,349.33
2017-07-11T05:31:36.694Z,319.83
2017-07-11T05:34:05.533Z,356.60
2017-07-11T05:36:33.797Z,338.57
2017-07-11T05:39:02.040Z,321.83
2017-07-11T05:41:30.549Z,270.70
2017-07-11T05:43:59.233Z,287.97
2017-07-11T05:46:28.067Z,257.40
2017-07-11T05:48:56.826Z,234.27
2017-07-11T05:51:25.543Z,249.02
2017-07-11T05:53:54.537Z,216.47
2017-07-11T05:56:23.328Z,214.80
2017-07-11T05:58:52.069Z,197.23
2017-07-11T06:01:21.901Z,220.57
2017-07-11T06:03:50.601Z,169.33
2017-07-11T06:06:19.321Z,167.97
2017-07-11T06:08:48.129Z,184.67
2017-07-11T06:11:17.738Z,164.30
2017-07-11T06:13:46.304Z,181.47
2017-07-11T06:16:15.322Z,154.73
2017-07-11T06:18:44.926Z,168.23
2017-07-11T06:21:13.478Z,141.77
2017-07-11T06:23:42.341Z,167.33
2017-07-11T06:26:11.029Z,138.57
2017-07-11T06:28:39.778Z,174.67
2017-07-11T06:31:08.489Z,138.00
2017-07-11T06:33:38.008Z,160.60
2017-07-11T06:36:06.814Z,113.17
2017-07-11T06:38:35.506Z,168.83
2017-07-11T06:41:04.102Z,155.77
2017-07-11T06:43:32.269Z,145.20
2017-07-11T06:46:01.005Z,138.17
2017-07-11T06:48:29.221Z,131.60
2017-07-11T06:50:58.013Z,135.52
2017-07-11T06:53:26.762Z,124.95
2017-07-11T06:55:55.507Z,143.10
2017-07-11T06:58:24.253Z,128.50
2017-07-11T07:00:53.162Z,119.18
2017-07-11T07:03:21.949Z,130.87
2017-07-11T07:05:50.854Z,143.55
2017-07-11T07:08:19.162Z,108.90
2017-07-11T07:10:47.330Z,122.97
2017-07-11T07:13:16.201Z,91.20
2017-07-11T07:15:44.605Z,118.10
2017-07-11T07:18:13.441Z,119.85
2017-07-11T07:20:42.854Z,109.80
2017-07-11T07:23:11.333Z,97.22
2017-07-11T07:25:40.034Z,99.43
2017-07-11T07:28:08.284Z,110.15
2017-07-11T07:30:37.920Z,103.18
2017-07-11T07:33:06.825Z,95.78
2017-07-11T07:35:35.630Z,110.75
2017-07-11T07:38:04.257Z,91.50
2017-07-11T07:40:34.642Z,101.87
2017-07-11T07:43:02.778Z,96.15
2017-07-11T07:45:31.494Z,106.72
2017-07-11T07:48:00.193Z,101.75
2017-07-11T07:50:28.941Z,115.10
2017-07-11T07:52:57.738Z,98.03
2017-07-11T07:55:26.634Z,98.70
2017-07-11T07:57:55.442Z,95.30
2017-07-11T08:00:23.681Z,111.97
2017-07-11T08:02:53.248Z,115.65
2017-07-11T08:05:21.926Z,120.82
2017-07-11T08:07:50.774Z,133.43
2017-07-11T08:10:19.473Z,140.60
2017-07-11T08:12:48.326Z,132.82
2017-07-11T08:15:17.322Z,131.40
2017-07-11T08:17:46.930Z,122.07
2017-07-11T08:20:15.749Z,133.23
2017-07-11T08:22:44.618Z,136.67
2017-07-11T08:25:13.178Z,143.47
2017-07-11T08:27:41.852Z,155.43
2017-07-11T08:30:11.415Z,126.67
2017-07-11T08:32:40.106Z,127.50
2017-07-11T08:35:08.794Z,123.77
2017-07-11T08:37:37.791Z,140.50
2017-07-11T08:40:06.005Z,125.20
2017-07-11T08:42:34.586Z,133.80
2017-07-11T08:45:03.742Z,147.87
2017-07-11T08:47:32.002Z,145.57
2017-07-11T08:50:01.534Z,121.07
2017-07-11T08:52:30.333Z,127.47
2017-07-11T08:54:59.289Z,114.33
2017-07-11T08:57:28.235Z,120.97
2017-07-11T08:59:56.993Z,118.80
2017-07-11T09:02:25.622Z,118.50
2017-07-11T09:04:54.370Z,116.50
2017-07-11T09:07:23.294Z,108.40
2017-07-11T09:09:51.554Z,124.10
2017-07-11T09:12:20.220Z,122.70
2017-07-11T09:14:48.586Z,140.83
2017-07-11T09:17:17.426Z,125.03
2017-07-11T09:19:45.978Z,148.30
2017-07-11T09:22:15.481Z,112.47
2017-07-11T09:24:45.110Z,113.50
2017-07-11T09:27:13.862Z,103.70
2017-07-11T09:29:42.806Z,129.03
2017-07-11T09:32:11.615Z,108.63
2017-07-11T09:34:40.210Z,136.47
2017-07-11T09:37:08.558Z,119.33
2017-07-11T09:39:36.770Z,107.10
2017-07-11T09:42:06.568Z,110.97
2017-07-11T09:44:37.272Z,128.67
2017-07-11T09:47:06.373Z,95.40
2017-07-11T09:49:37.237Z,94.20
2017-07-11T09:52:06.741Z,100.57
2017-07-11T09:54:34.993Z,102.07
2017-07-11T09:57:05.248Z,97.70
2017-07-11T09:59:34.929Z,97.40
2017-07-11T10:02:05.280Z,81.07
2017-07-11T10:04:35.833Z,92.13
2017-07-11T10:07:06.862Z,101.60
2017-07-11T10:09:37.737Z,95.27
2017-07-11T10:12:07.869Z,105.50
2017-07-11T10:14:38.865Z,103.87
2017-07-11T10:17:09.029Z,94.90
2017-07-11T10:19:39.125Z,83.90
2017-07-11T10:22:09.129Z,81.40
2017-07-11T10:24:39.970Z,80.43
2017-07-11T10:27:09.420Z,86.63
2017-07-11T10:29:40.139Z,92.27
2017-07-11T10:32:11.522Z,93.43
2017-07-11T10:34:41.781Z,87.30
2017-07-11T10:37:14.145Z,91.40
2017-07-11T10:39:43.953Z,97.27
2017-07-11T10:42:12.950Z,87.13
2017-07-11T10:44:44.566Z,92.77
2017-07-11T10:47:15.234Z,78.37
2017-07-11T10:49:45.345Z,90.37
2017-07-11T10:52:15.777Z,91.67
2017-07-11T10:54:45.483Z,94.60
2017-07-11T10:57:15.399Z,99.63
2017-07-11T10:59:45.650Z,91.47
2017-07-11T11:02:17.806Z,96.97
2017-07-11T11:04:48.398Z,76.17
2017-07-11T11:07:18.137Z,98.20
2017-07-11T11:09:48.326Z,82.90
2017-07-11T11:12:18.909Z,88.27
2017-07-11T11:14:48.259Z,94.93
2017-07-11T11:17:18.504Z,87.20
2017-07-11T11:19:48.347Z,78.50
2017-07-11T11:22:17.301Z,93.03
2017-07-11T11:24:45.806Z,81.33
2017-07-11T11:27:15.996Z,75.60
2017-07-11T11:29:46.030Z,78.10
2017-07-11T11:32:15.161Z,82.67
2017-07-11T11:34:44.362Z,72.80
2017-07-11T11:37:13.601Z,84.23
2017-07-11T11:39:42.963Z,84.60
2017-07-11T11:42:11.502Z,81.03
2017-07-11T11:44:41.382Z,75.23
2017-07-11T11:47:10.404Z,73.90
2017-07-11T11:49:44.016Z,97.67
2017-07-11T11:52:14.026Z,76.40
2017-07-11T11:54:44.670Z,92.27
2017-07-11T11:57:14.279Z,82.63
2017-07-11T11:59:44.350Z,71.50
2017-07-11T12:02:15.593Z,77.77
2017-07-11T12:04:44.230Z,94.03
2017-07-11T12:07:12.720Z,75.40
2017-07-11T12:09:42.980Z,72.63
2017-07-11T12:12:14.264Z,58.20
2017-07-11T12:14:44.309Z,75.13
2017-07-11T12:17:14.293Z,66.37
2017-07-11T12:19:43.962Z,64.93
2017-07-11T12:22:15.101Z,53.93
2017-07-11T12:24:44.482Z,69.37
2017-07-11T12:27:14.314Z,60.47
2017-07-11T12:29:44.749Z,62.87
2017-07-11T12:32:14.638Z,74.30
2017-07-11T12:34:44.270Z,80.10
2017-07-11T12:37:13.818Z,82.63
2017-07-11T12:39:43.618Z,70.53
2017-07-11T12:42:13.779Z,62.53
2017-07-11T12:44:45.017Z,64.33
2017-07-11T12:47:13.825Z,60.40
2017-07-11T12:49:44.503Z,68.63
2017-07-11T12:52:13.662Z,73.70
2017-07-11T12:54:42.553Z,52.10
2017-07-11T12:57:12.911Z,55.77
2017-07-11T12:59:42.026Z,57.53
2017-07-11T13:02:14.261Z,59.70
2017-07-11T13:04:44.309Z,57.57
2017-07-11T13:07:14.338Z,54.47
2017-07-11T13:09:43.278Z,63.17
2017-07-11T13:12:13.186Z,58.07
2017-07-11T13:14:42.201Z,66.10
2017-07-11T13:17:12.069Z,71.57
2017-07-11T13:19:40.398Z,58.03
2017-07-11T13:22:09.525Z,58.77
2017-07-11T13:24:39.860Z,60.73
2017-07-11T13:27:09.821Z,53.60
2017-07-11T13:29:40.709Z,58.77
2017-07-11T13:32:11.768Z,54.07
2017-07-11T13:34:42.418Z,60.60
2017-07-11T13:37:12.274Z,63.00
2017-07-11T13:39:40.405Z,47.37
2017-07-11T13:42:10.670Z,65.40
2017-07-11T13:44:39.027Z,56.53
2017-07-11T13:47:09.769Z,64.10
2017-07-11T13:49:40.799Z,45.80
2017-07-11T13:52:09.162Z,61.07
2017-07-11T13:54:39.029Z,51.07
2017-07-11T13:57:09.006Z,50.93
2017-07-11T13:59:37.529Z,48.37
2017-07-11T14:02:06.397Z,52.57
2017-07-11T14:04:36.753Z,55.37
2017-07-11T14:07:05.886Z,56.27
2017-07-11T14:09:35.129Z,59.00
2017-07-11T14:12:05.133Z,55.57
2017-07-11T14:14:36.652Z,59.07
2017-07-11T14:17:06.348Z,49.23
2017-07-11T14:19:35.341Z,65.23
2017-07-11T14:22:09.574Z,57.33
2017-07-11T14:24:38.482Z,59.90
2017-07-11T14:27:07.562Z,60.63
2017-07-11T14:29:35.902Z,72.23
2017-07-11T14:32:06.269Z,54.43
2017-07-11T14:34:37.241Z,63.63
2017-07-11T14:37:07.130Z,53.33
2017-07-11T14:39:38.194Z,56.90
2017-07-11T14:42:09.033Z,61.40
2017-07-11T14:44:39.397Z,61.87
2017-07-11T14:47:08.951Z,61.77
2017-07-11T14:49:38.030Z,57.33
2017-07-11T14:52:09.437Z,49.60
2017-07-11T14:54:39.269Z,57.90
2017-07-11T14:57:08.805Z,74.03
2017-07-11T14:59:40.906Z,54.40
2017-07-11T15:02:11.110Z,51.70
2017-07-11T15:04:40.933Z,63.43
2017-07-11T15:07:11.021Z,59.93
2017-07-11T15:09:41.625Z,65.47
2017-07-11T15:12:11.657Z,69.90
2017-07-11T15:14:39.832Z,53.60
2017-07-11T15:17:08.498Z,45.50
2017-07-11T15:19:37.657Z,65.33
2017-07-11T15:22:08.141Z,45.30
2017-07-11T15:24:39.000Z,49.40
2017-07-11T15:27:08.953Z,57.13
2017-07-11T15:29:39.301Z,63.60
2017-07-11T15:32:08.846Z,60.23
2017-07-11T15:34:38.538Z,59.37
2017-07-11T15:37:07.510Z,58.30
2017-07-11T15:39:36.543Z,54.77
2017-07-11T15:42:06.484Z,53.63
2017-07-11T15:44:35.499Z,57.27
2017-07-11T15:47:05.023Z,47.30
2017-07-11T15:49:35.217Z,63.63
2017-07-11T15:52:05.538Z,63.73
2017-07-11T15:54:34.646Z,50.47
2017-07-11T15:57:03.569Z,54.77
2017-07-11T15:59:32.513Z,59.30
2017-07-11T16:02:02.118Z,62.87
2017-07-11T16:04:32.117Z,61.83
2017-07-11T16:07:02.117Z,59.27
2017-07-11T16:09:30.554Z,65.07
2017-07-11T16:12:00.296Z,52.90
2017-07-11T16:14:30.282Z,55.10
2017-07-11T16:17:02.078Z,58.17
2017-07-11T16:19:31.649Z,64.43
2017-07-11T16:22:01.821Z,67.20
2017-07-11T16:24:31.246Z,72.67
2017-07-11T16:27:01.641Z,62.53
2017-07-11T16:29:32.889Z,69.70
2017-07-11T16:32:03.861Z,57.27
2017-07-11T16:34:33.461Z,63.40
2017-07-11T16:37:02.939Z,69.30
2017-07-11T16:39:32.450Z,56.10
2017-07-11T16:42:03.245Z,50.63
2017-07-11T16:44:33.153Z,54.67
2017-07-11T16:47:02.953Z,60.97
2017-07-11T16:49:33.805Z,65.03
2017-07-11T16:52:04.481Z,60.87
2017-07-11T16:54:34.089Z,60.03
2017-07-11T16:57:03.492Z,56.23
2017-07-11T16:59:32.713Z,54.13
2017-07-11T17:02:02.550Z,62.90
2017-07-11T17:04:33.897Z,42.80
2017-07-11T17:07:02.957Z,54.17
2017-07-11T17:09:32.669Z,54.00
2017-07-11T17:12:03.779Z,58.13
2017-07-11T17:14:33.657Z,51.10
2017-07-11T17:17:04.345Z,47.47
2017-07-11T17:19:33.922Z,70.17
2017-07-11T17:22:02.697Z,64.80
2017-07-11T17:24:31.742Z,54.57
2017-07-11T17:27:01.225Z,52.93
2017-07-11T17:29:29.441Z,61.63
2017-07-11T17:31:58.294Z,65.97
2017-07-11T17:34:27.237Z,52.20
2017-07-11T17:36:55.861Z,50.80
2017-07-11T17:39:24.673Z,56.27
2017-07-11T17:41:54.222Z,54.73
2017-07-11T17:44:23.113Z,41.77
2017-07-11T17:46:51.797Z,63.93
2017-07-11T17:49:20.465Z,44.33
2017-07-11T17:51:49.245Z,49.67
2017-07-11T17:54:18.160Z,51.93
2017-07-11T17:56:47.050Z,56.47
2017-07-11T17:59:15.771Z,71.43
2017-07-11T18:01:44.433Z,60.87
2017-07-11T18:04:13.298Z,51.43
2017-07-11T18:06:41.437Z,46.63
2017-07-11T18:09:10.084Z,53.43
2017-07-11T18:11:38.748Z,65.40
2017-07-11T18:14:08.045Z,49.77
2017-07-11T18:16:37.449Z,67.57
2017-07-11T18:19:06.890Z,56.53
2017-07-11T18:21:35.613Z,53.40
2017-07-11T18:24:04.418Z,59.67
2017-07-11T18:26:33.125Z,66.67
2017-07-11T18:29:02.566Z,55.57
2017-07-11T18:31:31.473Z,58.27
2017-07-11T18:33:59.602Z,59.93
2017-07-11T18:36:28.181Z,71.67
2017-07-11T18:38:57.865Z,57.50
2017-07-11T18:41:26.709Z,52.43
2017-07-11T18:43:55.334Z,51.33
2017-07-11T18:46:24.105Z,56.53
2017-07-11T18:48:52.745Z,64.77
2017-07-11T18:51:22.085Z,63.23
2017-07-11T18:53:50.941Z,60.33
2017-07-11T18:56:19.746Z,58.93
2017-07-11T18:58:48.533Z,45.90
2017-07-11T19:01:17.534Z,84.33
2017-07-11T19:03:45.653Z,57.60
2017-07-11T19:06:13.821Z,53.17
2017-07-11T19:08:42.474Z,53.63
2017-07-11T19:11:11.180Z,48.23
2017-07-11T19:13:39.825Z,49.90
2017-07-11T19:16:08.731Z,61.13
2017-07-11T19:18:36.946Z,48.37
2017-07-11T19:21:05.681Z,49.97
2017-07-11T19:23:34.465Z,48.57
2017-07-11T19:26:03.825Z,50.60
2017-07-11T19:28:32.462Z,53.80
2017-07-11T19:31:02.093Z,59.00
2017-07-11T19:33:30.696Z,48.60
2017-07-11T19:35:59.442Z,62.80
2017-07-11T19:38:28.930Z,50.83
2017-07-11T19:40:57.684Z,62.13
2017-07-11T19:43:26.446Z,66.20
2017-07-11T19:45:55.442Z,64.23
2017-07-11T19:48:24.238Z,63.63
2017-07-11T19:50:52.794Z,67.23
2017-07-11T19:53:21.525Z,62.07
2017-07-11T19:55:50.289Z,61.93
2017-07-11T19:58:19.142Z,59.50
2017-07-11T20:00:47.418Z,73.43
2017-07-11T20:03:16.031Z,55.83
2017-07-11T20:05:44.830Z,63.43
2017-07-11T20:08:13.187Z,68.17
2017-07-11T20:10:41.374Z,60.27
2017-07-11T20:13:10.826Z,49.50
2017-07-11T20:15:39.712Z,61.87
2017-07-11T20:18:07.925Z,59.73
2017-07-11T20:20:36.425Z,54.67
2017-07-11T20:23:06.221Z,62.03
2017-07-11T20:25:34.806Z,57.20
2017-07-11T20:28:03.417Z,63.33
2017-07-11T20:30:31.734Z,59.57
2017-07-11T20:33:00.420Z,59.17
2017-07-11T20:35:29.002Z,59.97
2017-07-11T20:37:57.958Z,57.23
2017-07-11T20:40:27.263Z,68.07
2017-07-11T20:42:56.945Z,59.37
2017-07-11T20:45:25.938Z,78.10
2017-07-11T20:47:54.933Z,58.63
2017-07-11T20:50:23.779Z,62.27
2017-07-11T20:52:52.542Z,59.80
2017-07-11T20:55:21.162Z,78.70
2017-07-11T20:57:49.825Z,70.27
2017-07-11T21:00:18.616Z,81.13
2017-07-11T21:02:47.417Z,74.60
2017-07-11T21:05:15.662Z,65.57
2017-07-11T21:07:45.086Z,73.27
2017-07-11T21:10:13.557Z,79.03
2017-07-11T21:12:42.258Z,84.40
2017-07-11T21:15:11.149Z,82.63
2017-07-11T21:17:39.962Z,68.47
2017-07-11T21:20:08.655Z,59.47
2017-07-11T21:22:37.377Z,70.63
2017-07-11T21:25:06.189Z,64.37
2017-07-11T21:27:35.533Z,70.13
2017-07-11T21:30:04.423Z,86.77
2017-07-11T21:32:33.065Z,60.57
2017-07-11T21:35:02.518Z,66.07
2017-07-11T21:37:31.365Z,68.33
2017-07-11T21:40:00.845Z,63.40
2017-07-11T21:42:29.496Z,47.00
2017-07-11T21:44:58.598Z,56.53
2017-07-11T21:47:26.725Z,59.37
2017-07-11T21:49:56.231Z,56.27
2017-07-11T21:52:25.826Z,65.00
2017-07-11T21:54:56.162Z,58.33
2017-07-11T21:57:25.808Z,59.50
2017-07-11T21:59:54.570Z,66.17
2017-07-11T22:02:23.294Z,62.63
2017-07-11T22:04:52.045Z,78.73
2017-07-11T22:07:21.482Z,67.43
2017-07-11T22:09:50.144Z,56.60
2017-07-11T22:12:18.825Z,55.67
2017-07-11T22:14:47.832Z,61.80
2017-07-11T22:17:15.978Z,61.20
2017-07-11T22:19:45.474Z,76.50
2017-07-11T22:22:14.469Z,51.73
2017-07-11T22:24:43.310Z,54.00
2017-07-11T22:27:11.863Z,61.77
2017-07-11T22:29:41.653Z,53.80
2017-07-11T22:32:10.498Z,70.57
2017-07-11T22:34:39.059Z,61.73
2017-07-11T22:37:07.930Z,54.97
2017-07-11T22:39:36.137Z,63.07
2017-07-11T22:42:05.041Z,57.73
2017-07-11T22:44:33.747Z,67.40
2017-07-11T22:47:02.670Z,68.57
2017-07-11T23:02:33.982Z,60.80
2017-07-11T23:05:02.622Z,61.33
2017-07-11T23:07:30.789Z,74.57
2017-07-11T23:10:00.614Z,70.97
2017-07-11T23:12:30.018Z,66.13
2017-07-11T23:14:59.497Z,82.07
2017-07-11T23:17:28.293Z,64.07
2017-07-11T23:19:56.521Z,59.73
2017-07-11T23:22:25.410Z,70.70
2017-07-11T23:24:54.157Z,60.50
2017-07-11T23:27:23.695Z,68.30
2017-07-11T23:29:51.818Z,70.97
2017-07-11T23:32:20.658Z,76.47
2017-07-11T23:34:49.509Z,65.17
2017-07-11T23:37:18.502Z,61.13
2017-07-11T23:39:47.506Z,67.90
2017-07-11T23:42:15.733Z,58.90
2017-07-11T23:44:44.606Z,72.10
2017-07-11T23:47:13.633Z,75.57
2017-07-11T23:49:42.378Z,55.27
2017-07-11T23:52:11.078Z,59.80
2017-07-11T23:54:40.073Z,58.40
2017-07-11T23:57:09.025Z,55.83
2017-07-11T23:59:37.189Z,63.00
